Time,TemperatureF,DewpointF,PressureIn,WindDirection,WindDirectionDegrees,WindSpeedMPH,WindSpeedGustMPH,Humidity,HourlyPrecipIn,Conditions,Clouds,dailyrainin,SolarRadiationWatts/m^2,SoftwareType,DateUTC
2013-03-27 00:22:00,57.0,35.0,-100.00,West,273,13.0,17.0,43,0.00,,,0.00,0.000000,,2013-03-27 07:22:00,
2013-03-27 00:32:00,57.0,35.0,-100.00,West,273,13.0,17.0,43,0.00,,,0.00,0.000000,,2013-03-27 07:32:00,
2013-03-27 00:42:00,57.0,35.0,-100.00,West,273,13.0,17.0,43,0.00,,,0.00,0.000000,,2013-03-27 07:42:00,
2013-03-27 00:53:00,57.0,35.0,-100.00,West,273,13.0,17.0,43,0.00,,,0.00,0.000000,,2013-03-27 07:53:00,
2013-03-27 01:22:00,56.0,34.0,-100.00,West,272,15.0,21.0,43,0.00,,,0.00,0.000000,,2013-03-27 08:22:00,
2013-03-27 01:32:00,56.0,34.0,-100.00,West,272,15.0,21.0,43,0.00,,,0.00,0.000000,,2013-03-27 08:32:00,
2013-03-27 01:43:00,56.0,34.0,-100.00,West,272,15.0,21.0,43,0.00,,,0.00,0.000000,,2013-03-27 08:43:00,
2013-03-27 01:52:00,56.0,34.0,-100.00,West,272,15.0,21.0,43,0.00,,,0.00,0.000000,,2013-03-27 08:52:00,
2013-03-27 02:22:00,57.0,36.0,29.91,West,276,16.0,23.0,46,0.00,,,0.00,0.000000,,2013-03-27 09:22:00,
2013-03-27 02:32:00,57.0,36.0,29.91,West,276,16.0,23.0,46,0.00,,,0.00,0.000000,,2013-03-27 09:32:00,
2013-03-27 02:42:00,57.0,36.0,29.91,West,276,16.0,23.0,46,0.00,,,0.00,0.000000,,2013-03-27 09:42:00,
2013-03-27 02:52:00,57.0,36.0,29.91,West,276,16.0,23.0,46,0.00,,,0.00,0.000000,,2013-03-27 09:52:00,
2013-03-27 03:22:00,56.0,41.0,29.90,West,268,12.0,23.0,56,0.00,,,0.00,0.000000,,2013-03-27 10:22:00,
2013-03-27 03:32:00,56.0,41.0,29.90,West,268,12.0,23.0,56,0.00,,,0.00,0.000000,,2013-03-27 10:32:00,
2013-03-27 03:42:00,56.0,41.0,29.90,West,268,12.0,23.0,56,0.00,,,0.00,0.000000,,2013-03-27 10:42:00,
2013-03-27 03:52:00,56.0,41.0,29.90,West,268,12.0,23.0,56,0.00,,,0.00,0.000000,,2013-03-27 10:52:00,
2013-03-27 04:22:00,56.0,40.0,-100.00,West,271,15.0,26.0,55,0.00,,,0.00,0.000000,,2013-03-27 11:22:00,
2013-03-27 04:32:00,56.0,40.0,-100.00,West,271,15.0,26.0,55,0.00,,,0.00,0.000000,,2013-03-27 11:32:00,
2013-03-27 04:42:00,56.0,40.0,-100.00,West,271,15.0,26.0,55,0.00,,,0.00,0.000000,,2013-03-27 11:42:00,
2013-03-27 04:52:00,56.0,40.0,-100.00,West,271,15.0,26.0,55,0.00,,,0.00,0.000000,,2013-03-27 11:52:00,
2013-03-27 05:22:00,56.0,38.0,-100.00,West,271,17.0,26.0,50,0.00,,,0.00,0.000000,,2013-03-27 12:22:00,
2013-03-27 05:32:00,56.0,38.0,-100.00,West,271,17.0,26.0,50,0.00,,,0.00,0.000000,,2013-03-27 12:32:00,
2013-03-27 05:42:00,56.0,38.0,-100.00,West,271,17.0,26.0,50,0.00,,,0.00,0.000000,,2013-03-27 12:42:00,
2013-03-27 05:51:00,56.0,38.0,-100.00,West,271,17.0,26.0,50,0.00,,,0.00,0.000000,,2013-03-27 12:51:00,
2013-03-27 06:22:00,55.0,36.0,-100.00,West,276,17.0,26.0,48,0.00,,,0.00,0.000000,,2013-03-27 13:22:00,
2013-03-27 06:32:00,55.0,36.0,-100.00,West,276,17.0,26.0,48,0.00,,,0.00,0.000000,,2013-03-27 13:32:00,
2013-03-27 06:42:00,55.0,36.0,-100.00,West,276,17.0,26.0,48,0.00,,,0.00,0.000000,,2013-03-27 13:42:00,
2013-03-27 06:52:00,55.0,36.0,-100.00,West,276,17.0,26.0,48,0.00,,,0.00,0.000000,,2013-03-27 13:52:00,
2013-03-27 07:22:00,53.0,35.0,-100.00,West,269,15.0,28.0,51,0.00,,,0.00,0.000000,,2013-03-27 14:22:00,
2013-03-27 07:32:00,53.0,35.0,-100.00,West,269,15.0,28.0,51,0.00,,,0.00,0.000000,,2013-03-27 14:32:00,
2013-03-27 07:42:00,53.0,35.0,-100.00,West,269,15.0,28.0,51,0.00,,,0.00,0.000000,,2013-03-27 14:42:00,
2013-03-27 07:52:00,53.0,35.0,-100.00,West,269,15.0,28.0,51,0.00,,,0.00,0.000000,,2013-03-27 14:52:00,
2013-03-27 08:22:00,55.0,38.0,-100.00,West,268,14.0,29.0,53,0.00,,,0.00,54.000000,,2013-03-27 15:22:00,
2013-03-27 08:33:00,55.0,38.0,-100.00,West,268,14.0,29.0,53,0.00,,,0.00,54.000000,,2013-03-27 15:33:00,
2013-03-27 08:42:00,55.0,38.0,-100.00,West,268,14.0,29.0,53,0.00,,,0.00,54.000000,,2013-03-27 15:42:00,
2013-03-27 08:52:00,55.0,38.0,-100.00,West,268,14.0,29.0,53,0.00,,,0.00,54.000000,,2013-03-27 15:52:00,
2013-03-27 11:22:00,69.0,35.0,-100.00,West,275,16.0,28.0,28,-99.99,,,0.00,774.000000,,2013-03-27 18:22:00,
2013-03-27 11:32:00,69.0,35.0,-100.00,West,275,16.0,28.0,28,-99.99,,,0.00,774.000000,,2013-03-27 18:32:00,
2013-03-27 11:42:00,69.0,35.0,-100.00,West,275,16.0,28.0,28,-99.99,,,0.00,774.000000,,2013-03-27 18:42:00,
2013-03-27 11:52:00,69.0,35.0,-100.00,West,275,16.0,28.0,28,-99.99,,,0.00,774.000000,,2013-03-27 18:52:00,
2013-03-27 12:42:00,69.0,34.0,-100.00,WNW,283,15.0,25.0,27,0.00,,,0.00,888.000000,,2013-03-27 19:42:00,
2013-03-27 12:52:00,69.0,34.0,-100.00,WNW,283,15.0,25.0,27,0.00,,,0.00,888.000000,,2013-03-27 19:52:00,
2013-03-27 13:22:00,74.0,39.0,29.95,SW,223,13.0,27.0,28,0.00,,,0.00,1015.000000,,2013-03-27 20:22:00,
2013-03-27 13:32:00,74.0,39.0,29.95,SW,223,13.0,27.0,28,0.00,,,0.00,1015.000000,,2013-03-27 20:32:00,
2013-03-27 13:42:00,74.0,39.0,29.95,SW,223,13.0,27.0,28,0.00,,,0.00,1015.000000,,2013-03-27 20:42:00,
2013-03-27 13:52:00,74.0,39.0,29.95,SW,223,13.0,27.0,28,0.00,,,0.00,1015.000000,,2013-03-27 20:52:00,
2013-03-27 14:22:00,72.0,38.0,29.94,SSW,207,19.0,26.0,29,0.00,,,0.00,981.000000,,2013-03-27 21:22:00,
2013-03-27 14:32:00,72.0,38.0,29.94,SSW,207,19.0,26.0,29,0.00,,,0.00,981.000000,,2013-03-27 21:32:00,
2013-03-27 14:43:00,72.0,38.0,29.94,SSW,207,19.0,26.0,29,0.00,,,0.00,981.000000,,2013-03-27 21:43:00,
2013-03-27 14:52:00,72.0,38.0,29.94,SSW,207,19.0,26.0,29,0.00,,,0.00,981.000000,,2013-03-27 21:52:00,
2013-03-27 15:23:00,73.0,41.0,29.94,SW,216,20.0,29.0,32,0.00,,,0.00,943.000000,,2013-03-27 22:23:00,
2013-03-27 15:33:00,73.0,41.0,29.94,SW,216,20.0,29.0,32,0.00,,,0.00,943.000000,,2013-03-27 22:33:00,
2013-03-27 15:42:00,73.0,41.0,29.94,SW,216,20.0,29.0,32,0.00,,,0.00,943.000000,,2013-03-27 22:42:00,
2013-03-27 15:52:00,73.0,41.0,29.94,SW,216,20.0,29.0,32,0.00,,,0.00,943.000000,,2013-03-27 22:52:00,
2013-03-27 16:22:00,66.0,42.0,29.94,SSW,207,17.0,30.0,41,0.00,,,0.00,467.000000,,2013-03-27 23:22:00,
2013-03-27 16:32:00,66.0,42.0,29.94,SSW,207,17.0,30.0,41,0.00,,,0.00,467.000000,,2013-03-27 23:32:00,
2013-03-27 16:42:00,66.0,42.0,29.94,SSW,207,17.0,30.0,41,0.00,,,0.00,467.000000,,2013-03-27 23:42:00,
2013-03-27 16:52:00,66.0,42.0,29.94,SSW,207,17.0,30.0,41,0.00,,,0.00,467.000000,,2013-03-27 23:52:00,
2013-03-27 17:22:00,67.0,43.0,-100.00,SW,220,17.0,27.0,42,0.00,,,0.00,249.000000,,2013-03-28 00:22:00,
2013-03-27 17:32:00,67.0,43.0,-100.00,SW,220,17.0,27.0,42,0.00,,,0.00,249.000000,,2013-03-28 00:32:00,
2013-03-27 17:42:00,67.0,43.0,-100.00,SW,220,17.0,27.0,42,0.00,,,0.00,249.000000,,2013-03-28 00:42:00,
2013-03-27 17:52:00,67.0,43.0,-100.00,SW,220,17.0,27.0,42,0.00,,,0.00,249.000000,,2013-03-28 00:52:00,